createdAt,value
2022-09-07T00:01:43.805Z,101209.00
2022-09-07T00:04:49.077Z,101206.16
2022-09-07T00:07:55.381Z,101205.16
2022-09-07T00:11:00.964Z,101199.28
2022-09-07T00:14:07.678Z,101199.63
2022-09-07T00:17:13.622Z,101195.44
2022-09-07T00:20:19.291Z,101193.59
2022-09-07T00:23:24.913Z,101196.28
2022-09-07T00:26:31.233Z,101194.25
2022-09-07T00:29:37.182Z,101185.41
2022-09-07T00:32:43.399Z,101191.09
2022-09-07T00:35:48.687Z,101185.94
2022-09-07T00:38:54.643Z,101185.94
2022-09-07T00:42:03.227Z,101191.28
2022-09-07T00:45:10.129Z,101185.09
2022-09-07T00:48:17.125Z,101187.94
2022-09-07T00:51:22.672Z,101185.59
2022-09-07T00:54:28.443Z,101183.63
2022-09-07T00:57:34.092Z,101178.31
2022-09-07T01:00:41.267Z,101178.19
2022-09-07T01:03:47.695Z,101175.34
2022-09-07T01:06:54.648Z,101170.69
2022-09-07T01:10:00.715Z,101174.88
2022-09-07T01:13:06.912Z,101174.38
2022-09-07T01:16:12.637Z,101173.91
2022-09-07T01:19:20.389Z,101172.22
2022-09-07T01:22:25.637Z,101170.41
2022-09-07T01:25:31.399Z,101167.56
2022-09-07T01:28:36.797Z,101169.03
2022-09-07T01:31:43.626Z,101166.69
2022-09-07T01:34:49.831Z,101156.38
2022-09-07T01:37:57.184Z,101160.34
2022-09-07T01:41:03.064Z,101154.50
2022-09-07T01:44:08.637Z,101164.84
2022-09-07T01:47:14.672Z,101167.97
2022-09-07T01:50:20.712Z,101167.28
2022-09-07T01:53:26.275Z,101161.09
2022-09-07T01:56:47.444Z,101162.25
2022-09-07T01:59:53.037Z,101156.88
2022-09-07T02:02:59.067Z,101157.84
2022-09-07T02:06:04.993Z,101161.66
2022-09-07T02:09:11.800Z,101157.28
2022-09-07T02:12:17.579Z,101164.59
2022-09-07T02:15:23.093Z,101149.06
2022-09-07T02:18:28.708Z,101147.53
2022-09-07T02:21:35.231Z,101153.00
2022-09-07T02:24:41.557Z,101146.47
2022-09-07T02:27:51.365Z,101145.13
2022-09-07T02:30:57.510Z,101144.56
2022-09-07T02:34:03.791Z,101147.06
2022-09-07T02:37:09.608Z,101143.56
2022-09-07T02:40:16.325Z,101146.72
2022-09-07T02:43:22.084Z,101144.03
2022-09-07T02:46:28.008Z,101143.69
2022-09-07T02:49:33.914Z,101144.19
2022-09-07T02:52:40.123Z,101144.19
2022-09-07T02:55:46.039Z,101145.84
2022-09-07T02:59:10.181Z,101140.69
2022-09-07T03:02:16.710Z,101142.53
2022-09-07T03:05:22.488Z,101147.69
2022-09-07T03:08:28.644Z,101151.19
2022-09-07T03:11:34.290Z,101141.13
2022-09-07T03:14:46.471Z,101141.78
2022-09-07T03:17:52.119Z,101142.44
2022-09-07T03:20:57.994Z,101143.47
2022-09-07T03:24:04.516Z,101148.44
2022-09-07T03:27:11.558Z,101141.09
2022-09-07T03:30:17.525Z,101136.41
2022-09-07T03:33:23.490Z,101133.72
2022-09-07T03:36:29.882Z,101132.53
2022-09-07T03:39:36.715Z,101135.41
2022-09-07T03:42:42.733Z,101128.38
2022-09-07T03:45:48.503Z,101126.06
2022-09-07T03:48:54.356Z,101117.09
2022-09-07T03:51:59.917Z,101123.63
2022-09-07T03:55:05.567Z,101128.16
2022-09-07T03:58:21.167Z,101133.50
2022-09-07T04:01:27.542Z,101132.00
2022-09-07T04:04:33.176Z,101122.31
2022-09-07T04:07:39.123Z,101122.31
2022-09-07T04:10:45.476Z,101116.31
2022-09-07T04:13:51.423Z,101113.16
2022-09-07T04:17:04.450Z,101115.00
2022-09-07T04:20:16.055Z,101114.00
2022-09-07T04:23:21.701Z,101118.00
2022-09-07T04:26:28.595Z,101115.81
2022-09-07T04:29:35.137Z,101113.22
2022-09-07T04:32:41.475Z,101112.34
2022-09-07T04:35:51.340Z,101126.47
2022-09-07T04:38:57.510Z,101126.94
2022-09-07T04:42:03.655Z,101126.28
2022-09-07T04:45:09.304Z,101122.72
2022-09-07T04:48:15.168Z,101132.88
2022-09-07T04:51:20.971Z,101125.16
2022-09-07T04:54:26.572Z,101126.94
2022-09-07T04:57:32.344Z,101127.50
2022-09-07T05:00:39.277Z,101130.56
2022-09-07T05:03:44.839Z,101132.16
2022-09-07T05:06:50.826Z,101132.34
2022-09-07T05:09:56.856Z,101130.03
2022-09-07T05:13:03.527Z,101134.09
2022-09-07T05:16:09.750Z,101125.97
2022-09-07T05:19:17.292Z,101127.34
2022-09-07T05:22:25.653Z,101131.41
2022-09-07T05:25:31.423Z,101130.91
2022-09-07T05:28:37.938Z,101134.75
2022-09-07T05:31:43.412Z,101129.91
2022-09-07T05:34:52.262Z,101135.00
2022-09-07T05:37:58.626Z,101139.84
2022-09-07T05:41:05.728Z,101132.16
2022-09-07T05:50:58.470Z,101141.56
2022-09-07T05:54:04.491Z,101138.72
2022-09-07T05:57:10.156Z,101146.28
2022-09-07T06:00:15.985Z,101151.09
2022-09-07T06:03:22.284Z,101153.69
2022-09-07T06:06:27.840Z,101155.19
2022-09-07T06:13:02.492Z,101148.25
2022-09-07T06:16:08.928Z,101155.06
2022-09-07T06:19:20.822Z,101155.97
2022-09-07T06:22:30.594Z,101160.94
2022-09-07T06:25:36.629Z,101164.03
2022-09-07T06:28:42.113Z,101162.25
2022-09-07T06:35:23.255Z,101156.16
2022-09-07T06:38:31.823Z,101162.56
2022-09-07T06:45:03.391Z,101159.72
2022-09-07T06:48:09.558Z,101158.28
2022-09-07T06:51:19.241Z,101161.22
2022-09-07T06:57:50.702Z,101165.78
2022-09-07T07:00:56.670Z,101166.41
2022-09-07T07:04:02.977Z,101175.97
2022-09-07T07:07:08.495Z,101175.13
2022-09-07T07:10:17.113Z,101169.31
2022-09-07T07:16:29.976Z,101176.41
2022-09-07T07:19:36.638Z,101177.66
2022-09-07T07:22:46.478Z,101191.72
2022-09-07T07:25:53.709Z,101185.28
2022-09-07T07:32:13.188Z,101193.88
2022-09-07T07:35:18.950Z,101196.91
2022-09-07T07:41:54.574Z,101176.94
2022-09-07T07:48:27.995Z,101172.41
2022-09-07T07:52:49.850Z,101174.59
2022-09-07T07:55:00.301Z,101166.81
2022-09-07T07:58:06.280Z,101172.78
2022-09-07T08:01:12.359Z,101169.09
2022-09-07T08:04:18.576Z,101166.38
2022-09-07T08:07:24.891Z,101151.44
2022-09-07T08:10:31.006Z,101150.03
2022-09-07T08:13:37.005Z,101163.41
2022-09-07T08:16:43.201Z,101157.13
2022-09-07T08:19:49.649Z,101160.16
2022-09-07T08:22:55.417Z,101155.56
2022-09-07T08:26:01.935Z,101160.84
2022-09-07T08:29:10.681Z,101165.34
2022-09-07T08:32:19.500Z,101159.50
2022-09-07T08:35:25.234Z,101155.75
2022-09-07T08:38:31.465Z,101154.41
2022-09-07T08:41:36.865Z,101150.16
2022-09-07T08:44:45.501Z,101153.09
2022-09-07T08:47:51.613Z,101152.50
2022-09-07T08:50:59.978Z,101158.13
2022-09-07T08:54:06.023Z,101150.22
2022-09-07T08:57:26.749Z,101158.88
2022-09-07T09:00:33.273Z,101166.63
2022-09-07T09:04:15.637Z,101159.44
2022-09-07T09:07:05.778Z,101163.19
2022-09-07T09:10:13.027Z,101162.56
2022-09-07T09:13:19.139Z,101168.75
2022-09-07T09:16:24.866Z,101158.44
2022-09-07T09:19:30.648Z,101152.59
2022-09-07T09:22:36.115Z,101167.25
2022-09-07T09:25:41.651Z,101154.81
2022-09-07T09:28:47.477Z,101155.81
2022-09-07T09:31:53.685Z,101149.84
2022-09-07T09:34:59.961Z,101148.34
2022-09-07T09:38:05.881Z,101155.28
2022-09-07T09:41:12.083Z,101152.34
2022-09-07T09:44:20.490Z,101158.06
2022-09-07T09:47:31.269Z,101156.59
2022-09-07T09:54:07.833Z,101158.88
2022-09-07T09:57:14.094Z,101151.38
2022-09-07T10:00:27.983Z,101152.88
2022-09-07T10:07:00.992Z,101152.31
2022-09-07T10:10:06.928Z,101154.22
2022-09-07T10:13:13.178Z,101153.25
2022-09-07T10:16:18.948Z,101147.16
2022-09-07T10:19:25.985Z,101145.63
2022-09-07T10:22:40.990Z,101142.22
2022-09-07T10:25:47.634Z,101140.91
2022-09-07T10:29:09.753Z,101142.03
2022-09-07T10:32:17.523Z,101143.09
2022-09-07T10:35:23.166Z,101139.53
2022-09-07T10:38:28.837Z,101136.94
2022-09-07T10:41:35.482Z,101147.44
2022-09-07T10:44:41.581Z,101133.50
2022-09-07T10:47:47.926Z,101127.53
2022-09-07T10:50:53.629Z,101123.59
2022-09-07T10:57:25.108Z,101114.66
2022-09-07T11:00:34.259Z,101116.84
2022-09-07T11:03:40.779Z,101123.78
2022-09-07T11:06:47.140Z,101122.78
2022-09-07T11:09:53.064Z,101109.13
2022-09-07T11:12:58.861Z,101126.72
2022-09-07T11:16:50.420Z,101117.97
2022-09-07T11:19:37.836Z,101115.16
2022-09-07T11:22:45.082Z,101123.41
2022-09-07T11:25:52.156Z,101123.31
2022-09-07T11:32:25.042Z,101121.50
2022-09-07T11:35:30.793Z,101117.00
2022-09-07T11:38:36.934Z,101123.03
2022-09-07T11:41:45.202Z,101118.00
2022-09-07T11:44:50.916Z,101113.19
2022-09-07T11:47:56.861Z,101116.91
2022-09-07T11:51:02.483Z,101115.72
2022-09-07T11:54:08.197Z,101108.94
2022-09-07T11:57:13.658Z,101110.66
2022-09-07T12:00:19.476Z,101109.44
2022-09-07T12:03:25.734Z,101104.22
2022-09-07T12:06:50.879Z,101117.50
2022-09-07T12:09:56.349Z,101105.56
2022-09-07T12:13:02.570Z,101112.75
2022-09-07T12:16:08.290Z,101106.00
2022-09-07T12:19:14.776Z,101104.66
2022-09-07T12:22:20.227Z,101102.06
2022-09-07T12:25:26.754Z,101102.00
2022-09-07T12:28:32.518Z,101101.00
2022-09-07T12:31:39.820Z,101099.41
2022-09-07T12:34:46.826Z,101104.63
2022-09-07T12:37:52.442Z,101095.41
2022-09-07T12:40:59.084Z,101097.88
2022-09-07T12:44:06.478Z,101097.88
2022-09-07T12:47:12.430Z,101097.97
2022-09-07T12:50:19.570Z,101095.84
2022-09-07T12:53:25.080Z,101099.63
2022-09-07T12:56:31.236Z,101094.91
2022-09-07T12:59:36.889Z,101090.81
2022-09-07T13:02:43.509Z,101092.97
2022-09-07T13:05:49.597Z,101096.16
2022-09-07T13:08:55.874Z,101093.50
2022-09-07T13:12:04.830Z,101095.34
2022-09-07T13:15:19.513Z,101095.59
2022-09-07T13:18:29.477Z,101092.41
2022-09-07T13:21:36.231Z,101101.22
2022-09-07T13:24:46.535Z,101103.00
2022-09-07T13:27:53.362Z,101105.56
2022-09-07T13:31:00.195Z,101098.81
2022-09-07T13:34:05.962Z,101104.59
2022-09-07T13:37:12.179Z,101106.16
2022-09-07T13:40:18.071Z,101112.34
2022-09-07T13:43:24.077Z,101112.78
2022-09-07T13:46:29.658Z,101105.94
2022-09-07T13:49:35.503Z,101101.06
2022-09-07T13:52:42.008Z,101103.09
2022-09-07T13:55:48.475Z,101102.25
2022-09-07T13:58:54.807Z,101108.88
2022-09-07T14:02:04.124Z,101111.59
2022-09-07T14:05:11.347Z,101106.97
2022-09-07T14:08:19.906Z,101108.59
2022-09-07T14:11:26.089Z,101107.84
2022-09-07T14:14:33.246Z,101105.19
2022-09-07T14:17:39.227Z,101108.78
2022-09-07T14:20:45.310Z,101102.25
2022-09-07T14:23:51.294Z,101094.28
2022-09-07T14:26:57.193Z,101102.34
2022-09-07T14:30:17.872Z,101101.66
2022-09-07T14:33:23.904Z,101101.19
2022-09-07T14:36:43.965Z,101095.25
2022-09-07T14:39:51.155Z,101087.97
2022-09-07T14:42:58.229Z,101092.34
2022-09-07T14:46:04.757Z,101100.66
2022-09-07T14:49:11.505Z,101105.28
2022-09-07T14:52:17.277Z,101103.38
2022-09-07T14:55:23.930Z,101107.81
2022-09-07T14:58:29.905Z,101103.72
2022-09-07T15:01:38.966Z,101097.78
2022-09-07T15:04:48.362Z,101105.69
2022-09-07T15:07:54.970Z,101108.56
2022-09-07T15:14:26.387Z,101095.94
2022-09-07T15:17:44.575Z,101108.38
2022-09-07T15:20:51.220Z,101109.00
2022-09-07T15:23:58.610Z,101108.00
2022-09-07T15:27:04.750Z,101113.22
2022-09-07T15:30:10.711Z,101115.69
2022-09-07T15:33:16.595Z,101116.25
2022-09-07T15:36:21.773Z,101092.34
2022-09-07T15:39:29.951Z,101104.00
2022-09-07T15:46:06.412Z,101111.03
2022-09-07T15:49:12.822Z,101101.47
2022-09-07T15:52:18.677Z,101107.56
2022-09-07T15:55:25.414Z,101108.41
2022-09-07T15:58:32.009Z,101105.47
2022-09-07T16:01:55.319Z,101111.94
2022-09-07T16:05:01.359Z,101103.00
2022-09-07T16:11:35.445Z,101110.81
2022-09-07T16:14:42.180Z,101102.59
2022-09-07T16:17:53.839Z,101105.75
2022-09-07T16:20:59.840Z,101114.78
2022-09-07T16:24:21.651Z,101113.16
2022-09-07T16:27:31.753Z,101123.28
2022-09-07T16:30:39.039Z,101125.13
2022-09-07T16:33:45.566Z,101119.09
2022-09-07T16:36:53.137Z,101120.41
2022-09-07T16:40:03.151Z,101124.84
2022-09-07T16:43:10.020Z,101116.94
2022-09-07T16:46:16.520Z,101112.06
2022-09-07T16:49:22.705Z,101110.13
2022-09-07T16:52:29.054Z,101120.66
2022-09-07T16:55:34.617Z,101124.03
2022-09-07T16:58:40.304Z,101117.78
2022-09-07T17:01:46.448Z,101119.44
2022-09-07T17:04:53.129Z,101119.88
2022-09-07T17:07:59.831Z,101120.53
2022-09-07T17:11:07.803Z,101117.34
2022-09-07T17:14:13.639Z,101115.91
2022-09-07T17:17:20.436Z,101127.41
2022-09-07T17:20:28.178Z,101120.81
2022-09-07T17:23:47.683Z,101123.06
2022-09-07T17:26:59.441Z,101123.22
2022-09-07T17:30:06.651Z,101129.97
2022-09-07T17:33:13.449Z,101133.53
2022-09-07T17:36:23.963Z,101139.09
2022-09-07T17:39:30.189Z,101143.41
2022-09-07T17:46:11.375Z,101153.19
2022-09-07T17:49:17.947Z,101157.63
2022-09-07T17:52:25.521Z,101159.53
2022-09-07T17:55:31.884Z,101161.25
2022-09-07T17:58:37.991Z,101170.00
2022-09-07T18:01:44.000Z,101166.94
2022-09-07T18:04:50.464Z,101171.13
2022-09-07T18:07:56.357Z,101176.94
2022-09-07T18:14:32.319Z,101180.53
2022-09-07T18:17:39.563Z,101186.34
2022-09-07T18:20:45.836Z,101190.91
2022-09-07T18:23:56.850Z,101199.38
2022-09-07T18:27:03.073Z,101198.53
2022-09-07T18:30:08.981Z,101195.81
2022-09-07T18:33:17.470Z,101196.88
2022-09-07T18:36:26.378Z,101193.13
2022-09-07T18:39:33.625Z,101196.84
2022-09-07T18:42:43.234Z,101205.72
2022-09-07T18:45:49.612Z,101214.00
2022-09-07T18:48:55.977Z,101207.16
2022-09-07T18:55:28.087Z,101208.34
2022-09-07T18:58:34.213Z,101215.78
2022-09-07T19:01:40.290Z,101216.13
2022-09-07T19:08:12.759Z,101225.59
2022-09-07T19:11:18.280Z,101222.84
2022-09-07T19:14:24.047Z,101236.28
2022-09-07T19:17:29.489Z,101242.59
2022-09-07T19:20:35.253Z,101237.38
2022-09-07T19:23:41.621Z,101244.75
2022-09-07T19:26:47.398Z,101241.78
2022-09-07T19:29:52.748Z,101241.28
2022-09-07T19:33:03.349Z,101245.16
2022-09-07T19:36:09.337Z,101241.94
2022-09-07T19:39:15.426Z,101249.13
2022-09-07T19:42:20.697Z,101247.63
2022-09-07T19:45:26.025Z,101251.25
2022-09-07T19:48:31.627Z,101257.56
2022-09-07T19:51:37.513Z,101257.06
2022-09-07T19:54:43.910Z,101251.16
2022-09-07T19:57:51.364Z,101251.66
2022-09-07T20:00:57.927Z,101255.31
2022-09-07T20:07:29.046Z,101259.63
2022-09-07T20:10:35.895Z,101272.13
2022-09-07T20:13:41.840Z,101256.97
2022-09-07T20:16:48.014Z,101261.41
2022-09-07T20:19:54.897Z,101265.50
2022-09-07T20:23:00.290Z,101266.03
2022-09-07T20:26:06.774Z,101262.47
2022-09-07T20:29:27.356Z,101265.88
2022-09-07T20:32:34.272Z,101267.41
2022-09-07T20:35:45.826Z,101264.66
2022-09-07T20:38:51.812Z,101268.72
2022-09-07T20:41:58.909Z,101264.75
2022-09-07T20:45:05.191Z,101271.50
2022-09-07T20:48:11.095Z,101275.53
2022-09-07T20:51:20.801Z,101269.25
2022-09-07T20:54:26.498Z,101281.34
2022-09-07T20:57:32.212Z,101276.91
2022-09-07T21:00:38.000Z,101285.81
2022-09-07T21:03:48.477Z,101288.59
2022-09-07T21:06:54.756Z,101291.97
2022-09-07T21:10:05.969Z,101287.34
2022-09-07T21:13:12.967Z,101286.19
2022-09-07T21:16:19.768Z,101284.44
2022-09-07T21:19:25.721Z,101288.63
2022-09-07T21:22:31.508Z,101297.41
2022-09-07T21:25:37.090Z,101303.44
2022-09-07T21:28:44.827Z,101308.25
2022-09-07T21:31:50.509Z,101309.44
2022-09-07T21:34:56.482Z,101309.16
2022-09-07T21:38:02.255Z,101302.31
2022-09-07T21:41:11.487Z,101309.00
2022-09-07T21:44:18.388Z,101301.88
2022-09-07T21:47:24.807Z,101309.41
2022-09-07T21:50:30.720Z,101309.75
2022-09-07T21:53:36.292Z,101305.63
2022-09-07T21:56:46.399Z,101312.97
2022-09-07T21:59:53.285Z,101310.63
2022-09-07T22:02:59.136Z,101318.81
2022-09-07T22:06:04.831Z,101325.50
2022-09-07T22:09:10.099Z,101321.53
2022-09-07T22:12:15.987Z,101322.72
2022-09-07T22:15:23.324Z,101329.91
2022-09-07T22:18:30.884Z,101336.75
2022-09-07T22:21:36.964Z,101329.56
2022-09-07T22:24:44.465Z,101341.91
2022-09-07T22:27:49.961Z,101337.03
2022-09-07T22:30:56.018Z,101330.00
2022-09-07T22:34:01.796Z,101342.50
2022-09-07T22:37:07.177Z,101336.47
2022-09-07T22:40:19.103Z,101336.75
2022-09-07T22:43:24.930Z,101336.06
2022-09-07T22:46:31.353Z,101338.41
2022-09-07T22:49:37.025Z,101335.38
2022-09-07T22:52:42.176Z,101331.66
2022-09-07T22:55:48.497Z,101323.66
2022-09-07T22:58:54.179Z,101325.69
2022-09-07T23:02:00.582Z,101329.38
2022-09-07T23:05:06.661Z,101334.06
2022-09-07T23:08:12.439Z,101329.06
2022-09-07T23:11:18.033Z,101332.06
2022-09-07T23:14:23.793Z,101336.28
2022-09-07T23:17:30.152Z,101333.31
2022-09-07T23:20:36.229Z,101330.13
2022-09-07T23:23:42.330Z,101336.03
2022-09-07T23:26:48.177Z,101326.69
2022-09-07T23:29:54.108Z,101328.03
2022-09-07T23:33:00.062Z,101320.38
2022-09-07T23:36:06.173Z,101318.72
2022-09-07T23:39:14.042Z,101314.69
2022-09-07T23:42:20.901Z,101320.72
2022-09-07T23:45:26.471Z,101314.91
2022-09-07T23:48:32.668Z,101315.59
2022-09-07T23:51:38.315Z,101310.94
2022-09-07T23:54:43.917Z,101316.97
2022-09-07T23:57:50.081Z,101310.28
